createdAt,value
2022-10-11T00:01:13.014Z,8.57
2022-10-11T00:04:12.142Z,8.40
2022-10-11T00:07:08.798Z,7.03
2022-10-11T00:10:06.899Z,11.23
2022-10-11T00:13:05.095Z,12.25
2022-10-11T00:16:01.287Z,9.88
2022-10-11T00:18:58.849Z,8.25
2022-10-11T00:21:58.069Z,6.97
2022-10-11T00:24:54.643Z,7.32
2022-10-11T00:27:51.777Z,8.05
2022-10-11T00:30:50.936Z,8.80
2022-10-11T00:33:47.783Z,8.85
2022-10-11T00:36:45.809Z,8.95
2022-10-11T00:39:43.908Z,9.15
2022-10-11T00:42:40.778Z,9.18
2022-10-11T00:45:37.881Z,10.68
2022-10-11T00:48:46.249Z,8.68
2022-10-11T00:51:52.537Z,11.57
2022-10-11T00:54:50.606Z,10.75
2022-10-11T00:57:49.625Z,8.13
2022-10-11T01:00:48.172Z,7.05
2022-10-11T01:03:44.951Z,5.82
2022-10-11T01:06:42.933Z,9.50
2022-10-11T01:09:40.813Z,6.15
2022-10-11T01:12:49.147Z,7.63
2022-10-11T01:15:53.265Z,7.93
2022-10-11T01:19:19.106Z,11.27
2022-10-11T01:22:43.702Z,7.28
2022-10-11T01:26:15.666Z,7.93
2022-10-11T01:29:42.481Z,10.55
2022-10-11T01:33:00.381Z,9.90
2022-10-11T01:36:27.746Z,9.77
2022-10-11T01:39:52.139Z,11.25
2022-10-11T01:42:51.568Z,11.70
2022-10-11T01:45:54.306Z,10.07
2022-10-11T01:48:59.464Z,8.65
2022-10-11T01:52:04.954Z,7.85
2022-10-11T01:55:17.964Z,8.38
2022-10-11T01:58:53.274Z,11.93
2022-10-11T02:02:15.896Z,8.88
2022-10-11T02:05:35.305Z,9.85
2022-10-11T02:08:50.078Z,9.60
2022-10-11T02:11:48.480Z,8.15
2022-10-11T02:14:49.560Z,7.18
2022-10-11T02:17:56.452Z,8.13
2022-10-11T02:20:55.551Z,8.10
2022-10-11T02:24:00.653Z,6.80
2022-10-11T02:27:00.161Z,10.85
2022-10-11T02:30:00.889Z,9.80
2022-10-11T02:33:02.798Z,9.32
2022-10-11T02:36:10.974Z,11.20
2022-10-11T02:39:16.782Z,7.22
2022-10-11T02:42:33.996Z,10.40
2022-10-11T02:45:41.980Z,9.23
2022-10-11T02:48:40.024Z,7.95
2022-10-11T02:51:39.563Z,9.35
2022-10-11T02:54:37.395Z,7.28
2022-10-11T02:57:15.708Z,4.80
2022-10-11T03:00:13.331Z,6.03
2022-10-11T03:03:11.421Z,6.85
2022-10-11T03:06:09.083Z,12.07
2022-10-11T03:09:07.290Z,8.98
2022-10-11T03:12:04.178Z,5.22
2022-10-11T03:15:01.579Z,9.95
2022-10-11T03:17:58.363Z,8.10
2022-10-11T03:20:55.810Z,8.60
2022-10-11T03:23:52.624Z,6.03
2022-10-11T03:26:49.853Z,7.25
2022-10-11T03:29:49.077Z,9.65
2022-10-11T03:32:45.747Z,6.53
2022-10-11T03:35:47.015Z,7.30
2022-10-11T03:38:44.777Z,6.53
2022-10-11T03:41:41.866Z,7.40
2022-10-11T03:44:39.296Z,11.25
2022-10-11T03:47:37.709Z,5.55
2022-10-11T03:50:37.518Z,8.30
2022-10-11T03:53:35.546Z,8.98
2022-10-11T03:56:32.674Z,11.00
2022-10-11T03:59:29.741Z,7.25
2022-10-11T04:02:26.985Z,9.80
2022-10-11T04:05:23.841Z,7.63
2022-10-11T04:08:20.985Z,9.18
2022-10-11T04:11:17.994Z,8.18
2022-10-11T04:14:15.419Z,9.25
2022-10-11T04:17:12.363Z,9.15
2022-10-11T04:20:10.402Z,7.40
2022-10-11T04:23:08.418Z,5.40
2022-10-11T04:26:07.576Z,6.97
2022-10-11T04:29:06.217Z,8.43
2022-10-11T04:32:03.580Z,7.95
2022-10-11T04:35:06.629Z,6.55
2022-10-11T04:38:03.638Z,6.50
2022-10-11T04:41:12.029Z,6.93
2022-10-11T04:44:09.713Z,6.35
2022-10-11T04:47:06.219Z,8.40
2022-10-11T04:50:04.079Z,8.60
2022-10-11T04:53:02.204Z,10.63
2022-10-11T04:56:07.828Z,6.72
2022-10-11T04:59:06.223Z,7.57
2022-10-11T05:02:02.986Z,8.00
2022-10-11T05:05:00.110Z,6.55
2022-10-11T05:07:57.339Z,9.57
2022-10-11T05:10:59.934Z,11.75
2022-10-11T05:13:57.632Z,13.80
2022-10-11T05:16:54.959Z,9.77
2022-10-11T05:19:53.010Z,12.90
2022-10-11T05:22:49.375Z,9.13
2022-10-11T05:25:46.632Z,6.32
2022-10-11T05:28:44.475Z,8.13
2022-10-11T05:31:42.425Z,7.22
2022-10-11T05:34:39.653Z,13.98
2022-10-11T05:37:36.902Z,8.63
2022-10-11T05:40:33.858Z,15.32
2022-10-11T05:43:33.479Z,11.60
2022-10-11T05:46:31.506Z,15.75
2022-10-11T05:49:28.458Z,10.68
2022-10-11T05:52:25.804Z,13.90
2022-10-11T05:55:22.621Z,11.00
2022-10-11T05:58:20.081Z,14.80
2022-10-11T06:01:22.263Z,12.77
2022-10-11T06:04:21.542Z,10.95
2022-10-11T06:07:19.192Z,9.90
2022-10-11T06:10:16.402Z,12.60
2022-10-11T06:13:13.668Z,10.68
2022-10-11T06:16:11.556Z,4.22
2022-10-11T06:19:09.510Z,4.13
2022-10-11T06:22:06.584Z,13.93
2022-10-11T06:25:03.703Z,5.50
2022-10-11T06:28:06.119Z,9.00
2022-10-11T06:31:05.210Z,16.38
2022-10-11T06:34:03.043Z,12.60
2022-10-11T06:37:00.101Z,7.32
2022-10-11T06:39:57.370Z,5.72
2022-10-11T06:42:54.652Z,6.38
2022-10-11T06:45:51.808Z,6.53
2022-10-11T06:48:49.151Z,5.15
2022-10-11T06:51:45.971Z,4.10
2022-10-11T06:54:45.061Z,5.20
2022-10-11T06:57:41.876Z,6.20
2022-10-11T07:00:39.172Z,10.07
2022-10-11T07:03:36.809Z,14.18
2022-10-11T07:06:41.047Z,6.75
2022-10-11T07:09:38.390Z,3.85
2022-10-11T07:12:35.840Z,2.42
2022-10-11T07:15:38.157Z,4.35
2022-10-11T07:18:36.570Z,5.95
2022-10-11T07:21:35.166Z,11.88
2022-10-11T07:24:32.044Z,7.55
2022-10-11T07:27:29.455Z,4.35
2022-10-11T07:30:26.441Z,7.15
2022-10-11T07:33:24.179Z,8.75
2022-10-11T07:36:23.337Z,5.18
2022-10-11T07:39:20.977Z,3.15
2022-10-11T07:42:18.284Z,3.00
2022-10-11T07:45:15.198Z,3.13
2022-10-11T07:48:12.561Z,3.47
2022-10-11T07:51:16.532Z,2.78
2022-10-11T07:54:13.431Z,2.88
2022-10-11T07:57:10.717Z,3.70
2022-10-11T08:00:08.000Z,1.25
2022-10-11T08:03:10.441Z,2.05
2022-10-11T08:06:12.176Z,2.83
2022-10-11T08:09:12.845Z,5.35
2022-10-11T08:12:10.412Z,3.78
2022-10-11T08:15:07.789Z,9.18
2022-10-11T08:18:04.567Z,6.00
2022-10-11T08:21:09.575Z,8.38
2022-10-11T08:24:08.086Z,3.88
2022-10-11T08:27:05.899Z,4.97
2022-10-11T08:30:03.507Z,5.07
2022-10-11T08:33:06.236Z,10.05
2022-10-11T08:36:06.597Z,7.10
2022-10-11T08:39:05.757Z,5.32
2022-10-11T08:42:15.644Z,3.10
2022-10-11T08:45:32.605Z,3.97
2022-10-11T08:48:40.935Z,4.32
2022-10-11T08:51:45.395Z,2.33
2022-10-11T08:54:43.288Z,3.08
2022-10-11T08:57:16.879Z,4.00
2022-10-11T08:59:52.105Z,6.55
2022-10-11T09:03:07.024Z,5.10
2022-10-11T09:05:35.770Z,3.45
2022-10-11T09:08:31.877Z,1.92
2022-10-11T09:11:10.790Z,3.72
2022-10-11T09:14:01.193Z,0.80
2022-10-11T09:16:38.759Z,5.15
2022-10-11T09:19:39.840Z,3.70
2022-10-11T09:22:30.528Z,5.57
2022-10-11T09:25:22.882Z,2.90
2022-10-11T09:28:26.232Z,3.33
2022-10-11T09:30:56.023Z,1.60
2022-10-11T09:33:29.307Z,2.90
2022-10-11T09:35:57.239Z,2.55
2022-10-11T09:38:43.756Z,3.42
2022-10-11T09:41:32.668Z,1.42
2022-10-11T09:43:59.957Z,10.38
2022-10-11T09:46:40.207Z,2.80
2022-10-11T09:49:15.836Z,3.63
2022-10-11T09:51:47.368Z,4.13
2022-10-11T09:54:14.439Z,2.08
2022-10-11T09:56:43.884Z,4.32
2022-10-11T09:59:33.885Z,2.90
2022-10-11T10:02:28.852Z,5.60
2022-10-11T10:05:01.027Z,4.18
2022-10-11T10:07:31.313Z,10.75
2022-10-11T10:09:58.660Z,2.13
2022-10-11T10:12:30.564Z,3.75
2022-10-11T10:15:03.105Z,6.10
2022-10-11T10:17:30.868Z,4.38
2022-10-11T10:20:00.543Z,6.78
2022-10-11T10:22:34.064Z,1.38
2022-10-11T10:25:07.939Z,10.15
2022-10-11T10:27:35.438Z,3.38
2022-10-11T10:30:08.512Z,2.00
2022-10-11T10:32:48.774Z,2.17
2022-10-11T10:35:33.971Z,2.42
2022-10-11T10:38:10.400Z,3.05
2022-10-11T10:40:43.566Z,1.75
2022-10-11T10:43:21.678Z,1.45
2022-10-11T10:46:25.970Z,4.30
2022-10-11T10:52:20.844Z,2.65
2022-10-11T10:54:50.900Z,8.93
2022-10-11T10:57:44.109Z,3.50
2022-10-11T11:00:12.125Z,2.45
2022-10-11T11:02:42.385Z,3.40
2022-10-11T11:05:34.035Z,2.95
2022-10-11T11:08:17.237Z,1.05
2022-10-11T11:10:52.692Z,5.82
2022-10-11T11:13:54.446Z,6.18
2022-10-11T11:16:29.567Z,3.22
2022-10-11T11:19:17.871Z,1.88
2022-10-11T11:21:54.542Z,1.65
2022-10-11T11:24:43.038Z,2.45
2022-10-11T11:27:13.119Z,3.00
2022-10-11T11:29:43.682Z,2.20
2022-10-11T11:32:46.289Z,2.45
2022-10-11T11:35:23.017Z,3.88
2022-10-11T11:37:59.352Z,2.63
2022-10-11T11:40:35.287Z,4.88
2022-10-11T11:43:12.624Z,4.55
2022-10-11T11:45:48.903Z,8.82
2022-10-11T11:48:19.943Z,2.38
2022-10-11T11:50:55.509Z,2.50
2022-10-11T11:53:48.900Z,4.05
2022-10-11T11:56:38.441Z,1.27
2022-10-11T11:59:39.536Z,2.95
2022-10-11T12:02:49.067Z,4.43
2022-10-11T12:05:20.809Z,3.85
2022-10-11T12:07:49.923Z,3.13
2022-10-11T12:10:28.862Z,1.08
2022-10-11T12:13:32.376Z,6.70
2022-10-11T12:15:59.748Z,4.28
2022-10-11T12:18:27.714Z,2.72
2022-10-11T12:21:08.403Z,2.42
2022-10-11T12:23:43.452Z,2.80
2022-10-11T12:26:18.348Z,2.33
2022-10-11T12:29:05.874Z,6.50
2022-10-11T12:31:35.934Z,4.60
2022-10-11T12:34:17.114Z,2.42
2022-10-11T12:36:51.455Z,3.40
2022-10-11T12:39:20.629Z,4.28
2022-10-11T12:41:47.716Z,2.50
2022-10-11T12:44:28.388Z,4.25
2022-10-11T12:46:58.236Z,5.95
2022-10-11T12:49:49.383Z,2.53
2022-10-11T12:52:16.417Z,4.07
2022-10-11T12:55:10.879Z,2.67
2022-10-11T12:57:59.246Z,3.20
2022-10-11T13:00:33.725Z,3.10
2022-10-11T13:03:29.763Z,5.53
2022-10-11T13:06:01.881Z,3.42
2022-10-11T13:08:34.691Z,13.40
2022-10-11T13:11:06.256Z,3.40
2022-10-11T13:13:39.559Z,8.48
2022-10-11T13:16:16.376Z,3.92
2022-10-11T13:18:46.545Z,2.15
2022-10-11T13:21:29.257Z,5.22
2022-10-11T13:23:59.856Z,3.58
2022-10-11T13:26:29.227Z,5.38
2022-10-11T13:28:57.492Z,6.93
2022-10-11T13:31:25.450Z,6.00
2022-10-11T13:33:59.181Z,3.97
2022-10-11T13:36:27.596Z,7.32
2022-10-11T13:38:58.464Z,6.90
2022-10-11T13:41:28.559Z,2.97
2022-10-11T13:43:57.364Z,7.82
2022-10-11T13:46:26.864Z,4.03
2022-10-11T13:49:00.968Z,4.90
2022-10-11T13:51:37.960Z,4.55
2022-10-11T13:54:12.919Z,4.03
2022-10-11T13:56:51.408Z,4.18
2022-10-11T13:59:24.210Z,3.55
2022-10-11T14:02:00.195Z,3.42
2022-10-11T14:04:30.033Z,5.75
2022-10-11T14:07:02.365Z,5.93
2022-10-11T14:09:36.766Z,11.20
2022-10-11T14:12:32.255Z,3.38
2022-10-11T14:15:01.774Z,5.72
2022-10-11T14:17:45.701Z,3.22
2022-10-11T14:20:15.456Z,10.27
2022-10-11T14:22:43.384Z,5.20
2022-10-11T14:25:10.734Z,3.83
2022-10-11T14:27:38.707Z,5.53
2022-10-11T14:30:26.128Z,8.35
2022-10-11T14:32:56.583Z,6.25
2022-10-11T14:35:31.083Z,5.90
2022-10-11T14:37:58.509Z,4.95
2022-10-11T14:40:28.674Z,7.25
2022-10-11T14:42:56.713Z,6.18
2022-10-11T14:45:24.299Z,7.22
2022-10-11T14:47:51.998Z,8.40
2022-10-11T14:50:28.338Z,14.90
2022-10-11T14:52:55.845Z,6.07
2022-10-11T14:55:24.565Z,11.07
2022-10-11T14:57:51.928Z,16.15
2022-10-11T15:00:24.548Z,6.93
2022-10-11T15:02:52.896Z,7.80
2022-10-11T15:05:21.369Z,6.88
2022-10-11T15:07:49.437Z,9.13
2022-10-11T15:10:23.782Z,18.23
2022-10-11T15:12:52.622Z,11.18
2022-10-11T15:15:23.143Z,9.77
2022-10-11T15:17:54.516Z,9.52
2022-10-11T15:20:37.203Z,11.88
2022-10-11T15:23:09.815Z,8.40
2022-10-11T15:25:38.747Z,13.50
2022-10-11T15:28:07.197Z,10.52
2022-10-11T15:30:41.016Z,12.48
2022-10-11T15:33:08.720Z,14.05
2022-10-11T15:35:35.948Z,8.18
2022-10-11T15:38:04.501Z,15.82
2022-10-11T15:40:34.825Z,11.05
2022-10-11T15:43:02.815Z,12.02
2022-10-11T15:45:38.763Z,10.63
2022-10-11T15:48:06.828Z,14.73
2022-10-11T15:50:41.572Z,8.52
2022-10-11T15:53:19.017Z,11.45
2022-10-11T15:56:03.098Z,8.45
2022-10-11T15:58:33.918Z,9.88
2022-10-11T16:01:06.247Z,13.32
2022-10-11T16:06:31.433Z,8.73
2022-10-11T16:08:58.670Z,9.57
2022-10-11T16:11:25.859Z,10.45
2022-10-11T16:13:52.976Z,18.63
2022-10-11T16:16:20.079Z,10.73
2022-10-11T16:18:50.348Z,14.02
2022-10-11T16:21:17.707Z,15.45
2022-10-11T16:23:44.849Z,10.90
2022-10-11T16:26:14.853Z,17.45
2022-10-11T16:28:43.032Z,10.48
2022-10-11T16:31:14.073Z,23.27
2022-10-11T16:36:32.198Z,10.32
2022-10-11T16:39:04.069Z,9.52
2022-10-11T16:41:31.215Z,12.25
2022-10-11T16:43:58.336Z,13.15
2022-10-11T16:46:25.827Z,16.17
2022-10-11T16:48:55.935Z,18.58
2022-10-11T16:51:24.314Z,24.35
2022-10-11T16:53:52.816Z,16.50
2022-10-11T16:56:22.822Z,14.63
2022-10-11T16:58:50.567Z,10.20
2022-10-11T17:01:17.710Z,10.80
2022-10-11T17:03:44.919Z,15.25
2022-10-11T17:06:12.144Z,12.40
2022-10-11T17:08:39.211Z,9.95
2022-10-11T17:11:06.622Z,13.75
2022-10-11T17:13:33.832Z,12.25
2022-10-11T17:16:03.932Z,15.48
2022-10-11T17:18:32.445Z,11.80
2022-10-11T17:21:08.008Z,11.55
2022-10-11T17:23:35.819Z,12.90
2022-10-11T17:26:10.795Z,9.70
2022-10-11T17:28:39.019Z,11.90
2022-10-11T17:31:07.870Z,11.70
2022-10-11T17:33:35.637Z,10.65
2022-10-11T17:36:20.953Z,15.40
2022-10-11T17:38:49.318Z,18.38
2022-10-11T17:41:16.936Z,11.20
2022-10-11T17:43:44.071Z,16.75
2022-10-11T17:46:13.332Z,12.45
2022-10-11T17:48:40.594Z,10.95
2022-10-11T17:51:13.498Z,11.95
2022-10-11T17:53:40.634Z,19.85
2022-10-11T17:56:10.551Z,11.85
2022-10-11T17:58:39.099Z,12.52
2022-10-11T18:01:10.436Z,10.73
2022-10-11T18:03:37.911Z,12.18
2022-10-11T18:06:10.580Z,17.75
2022-10-11T18:08:40.536Z,14.40
2022-10-11T18:11:14.411Z,12.85
2022-10-11T18:13:46.058Z,15.93
2022-10-11T18:16:18.886Z,13.38
2022-10-11T18:18:46.611Z,15.70
2022-10-11T18:21:14.486Z,15.15
2022-10-11T18:23:41.999Z,13.18
2022-10-11T18:26:14.787Z,13.88
2022-10-11T18:28:44.002Z,18.65
2022-10-11T18:31:15.069Z,22.00
2022-10-11T18:33:43.565Z,14.27
2022-10-11T18:36:13.485Z,14.48
2022-10-11T18:38:51.614Z,19.57
2022-10-11T18:41:22.499Z,18.92
2022-10-11T18:43:52.529Z,14.60
2022-10-11T18:46:21.355Z,20.35
2022-10-11T18:48:51.322Z,22.20
2022-10-11T18:51:23.734Z,15.93
2022-10-11T18:53:51.607Z,18.30
2022-10-11T18:56:24.666Z,17.73
2022-10-11T18:58:53.818Z,16.30
2022-10-11T19:01:38.779Z,28.30
2022-10-11T19:04:07.777Z,16.95
2022-10-11T19:06:39.727Z,16.40
2022-10-11T19:09:12.299Z,22.90
2022-10-11T19:11:40.423Z,16.98
2022-10-11T19:14:14.776Z,17.10
2022-10-11T19:16:49.678Z,26.27
2022-10-11T19:19:18.727Z,33.00
2022-10-11T19:21:48.622Z,48.85
2022-10-11T19:24:17.546Z,45.05
2022-10-11T19:26:45.732Z,46.85
2022-10-11T19:29:19.858Z,51.13
2022-10-11T19:31:49.815Z,27.75
2022-10-11T19:34:17.012Z,42.03
2022-10-11T19:36:44.857Z,41.70
2022-10-11T19:39:18.009Z,41.17
2022-10-11T19:41:45.285Z,33.50
2022-10-11T19:44:13.382Z,31.70
2022-10-11T19:46:57.537Z,22.23
2022-10-11T19:49:26.393Z,21.65
2022-10-11T19:51:55.344Z,22.70
2022-10-11T19:54:23.018Z,22.17
2022-10-11T19:56:50.256Z,21.60
2022-10-11T19:59:17.815Z,18.73
2022-10-11T20:01:51.041Z,29.98
2022-10-11T20:04:51.121Z,29.08
2022-10-11T20:07:07.683Z,26.45
2022-10-11T20:09:34.777Z,27.63
2022-10-11T20:12:01.837Z,25.77
2022-10-11T20:14:29.019Z,21.40
2022-10-11T20:16:56.111Z,19.13
2022-10-11T20:19:30.126Z,14.35
2022-10-11T20:21:58.557Z,21.38
2022-10-11T20:24:27.586Z,14.43
2022-10-11T20:26:55.238Z,20.27
2022-10-11T20:29:26.495Z,21.38
2022-10-11T20:31:53.591Z,20.60
2022-10-11T20:34:20.678Z,19.85
2022-10-11T20:36:49.306Z,19.58
2022-10-11T20:39:17.038Z,38.35
2022-10-11T20:41:44.075Z,21.77
2022-10-11T20:44:13.192Z,39.30
2022-10-11T20:46:40.371Z,53.67
2022-10-11T20:49:10.502Z,59.85
2022-10-11T20:51:39.689Z,105.25
2022-10-11T20:54:07.456Z,53.00
2022-10-11T20:56:34.911Z,35.75
2022-10-11T20:59:02.412Z,22.27
2022-10-11T21:01:32.800Z,22.40
2022-10-11T21:04:01.846Z,76.43
2022-10-11T21:06:30.925Z,42.75
2022-10-11T21:08:59.615Z,19.73
2022-10-11T21:11:31.945Z,27.65
2022-10-11T21:14:02.215Z,16.10
2022-10-11T21:16:29.766Z,23.40
2022-10-11T21:18:58.497Z,24.38
2022-10-11T21:21:26.630Z,30.90
2022-10-11T21:23:58.978Z,21.65
2022-10-11T21:26:27.468Z,23.50
2022-10-11T21:28:54.972Z,23.42
2022-10-11T21:31:23.204Z,19.83
2022-10-11T21:33:50.347Z,22.90
2022-10-11T21:36:22.523Z,18.50
2022-10-11T21:38:50.971Z,29.42
2022-10-11T21:41:21.244Z,21.60
2022-10-11T21:43:48.853Z,27.02
2022-10-11T21:46:21.437Z,38.90
2022-10-11T21:48:50.201Z,41.13
2022-10-11T21:51:25.038Z,36.00
2022-10-11T21:53:53.320Z,32.40
2022-10-11T21:56:21.115Z,27.67
2022-10-11T21:58:49.431Z,27.92
2022-10-11T22:01:17.891Z,29.55
2022-10-11T22:03:45.488Z,24.77
2022-10-11T22:06:13.083Z,29.90
2022-10-11T22:08:40.966Z,29.88
2022-10-11T22:11:08.634Z,34.75
2022-10-11T22:13:35.920Z,30.85
2022-10-11T22:16:07.677Z,34.63
2022-10-11T22:18:34.950Z,30.77
2022-10-11T22:21:13.453Z,25.10
2022-10-11T22:23:44.517Z,30.90
2022-10-11T22:26:14.999Z,25.85
2022-10-11T22:28:42.718Z,23.75
2022-10-11T22:31:11.019Z,30.13
2022-10-11T22:33:38.870Z,38.38
2022-10-11T22:36:12.288Z,49.22
2022-10-11T22:38:41.540Z,47.72
2022-10-11T22:41:09.110Z,35.83
2022-10-11T22:43:36.365Z,36.28
2022-10-11T22:46:03.743Z,42.30
2022-10-11T22:48:30.874Z,34.22
2022-10-11T22:50:58.004Z,32.55
2022-10-11T22:53:25.270Z,42.40
2022-10-11T22:55:52.402Z,42.05
2022-10-11T22:58:19.524Z,44.75
2022-10-11T23:00:46.665Z,45.53
2022-10-11T23:03:15.408Z,57.97
2022-10-11T23:05:42.947Z,39.08
2022-10-11T23:08:10.503Z,43.42
2022-10-11T23:10:40.730Z,44.15
2022-10-11T23:13:07.952Z,39.00
2022-10-11T23:15:35.038Z,41.45
2022-10-11T23:18:02.183Z,35.60
2022-10-11T23:20:29.290Z,43.40
2022-10-11T23:22:56.387Z,39.58
2022-10-11T23:25:23.503Z,41.20
2022-10-11T23:27:50.637Z,40.00
2022-10-11T23:30:17.835Z,40.83
2022-10-11T23:32:44.993Z,42.70
2022-10-11T23:35:12.114Z,40.65
2022-10-11T23:37:39.665Z,37.85
2022-10-11T23:40:08.023Z,34.60
2022-10-11T23:42:35.173Z,33.22
2022-10-11T23:45:02.278Z,47.38
2022-10-11T23:47:30.909Z,46.35
2022-10-11T23:49:57.975Z,39.38
2022-10-11T23:52:25.034Z,42.42
2022-10-11T23:54:52.134Z,42.10
2022-10-11T23:57:19.190Z,38.13
2022-10-11T23:59:46.627Z,38.95
